Time;durP1;ratioP1;P1;durP2;ratioP2;P2;SDS_P1;SDS_P2;PMS_P1;PMS_P2;Temp;Humidity;BMP_temperature;BMP_pressure;BME280_temperature;BME280_humidity;BME280_pressure;Samples;Min_cycle;Max_cycle;Signal;HPM_P1;HPM_P2
2023/06/30 00:02:42;;;;;;;3.95;3.55;;;;;21.20;96028.00;;;;8268181;28;20313;-65
2023/06/30 00:06:49;;;;;;;5.60;4.00;;;;;21.20;96031.00;;;;8253968;28;20229;-63
2023/06/30 00:10:53;;;;;;;5.20;3.40;;;;;21.20;96032.00;;;;8261435;28;20202;-63
2023/06/30 00:14:56;;;;;;;3.90;3.50;;;;;21.20;96028.00;;;;8259438;28;20607;-63
2023/06/30 00:19:04;;;;;;;6.85;3.67;;;;;21.30;96014.00;;;;8283546;28;20713;-64
2023/06/30 00:23:11;;;;;;;6.25;3.95;;;;;21.40;96013.00;;;;8245293;28;20759;-64
2023/06/30 00:27:18;;;;;;;4.72;3.58;;;;;21.60;96005.00;;;;8271271;28;20305;-66
2023/06/30 00:31:21;;;;;;;4.97;3.80;;;;;21.70;96007.00;;;;8260421;28;20584;-65
2023/06/30 00:35:27;;;;;;;4.20;3.53;;;;;21.80;95999.00;;;;8254234;28;20353;-65
2023/06/30 00:39:32;;;;;;;3.70;3.40;;;;;21.90;96007.00;;;;8268411;28;20205;-64
2023/06/30 00:43:49;;;;;;;6.57;3.70;;;;;21.90;96000.00;;;;8278617;28;20202;-64
2023/06/30 00:47:52;;;;;;;4.05;3.63;;;;;21.50;96010.00;;;;8251417;28;20883;-64
2023/06/30 00:51:56;;;;;;;10.60;4.38;;;;;20.80;96020.00;;;;8261498;28;20240;-71
2023/06/30 00:56:01;;;;;;;5.82;4.10;;;;;20.20;96013.00;;;;8266914;28;20281;-71
2023/06/30 01:00:10;;;;;;;5.03;4.25;;;;;19.90;95995.00;;;;8267118;28;20212;-70
2023/06/30 01:04:18;;;;;;;7.82;4.32;;;;;19.60;95992.00;;;;8270231;28;20278;-72
2023/06/30 01:08:27;;;;;;;5.20;4.70;;;;;19.40;95994.00;;;;8282307;28;20360;-72
2023/06/30 01:12:35;;;;;;;6.97;4.75;;;;;19.40;95997.00;;;;8275070;28;20824;-72
2023/06/30 01:16:43;;;;;;;7.22;4.80;;;;;19.50;95986.00;;;;8277512;28;20881;-73
2023/06/30 01:20:47;;;;;;;5.35;4.85;;;;;19.40;95974.00;;;;8270785;28;20206;-73
2023/06/30 01:24:57;;;;;;;5.63;5.13;;;;;19.30;95971.00;;;;8264673;28;20213;-76
2023/06/30 01:29:03;;;;;;;6.43;5.57;;;;;19.20;95974.00;;;;8271436;28;20319;-75
2023/06/30 01:33:06;;;;;;;8.32;5.25;;;;;19.20;95970.00;;;;8277786;28;20210;-74
2023/06/30 01:37:14;;;;;;;8.77;6.03;;;;;19.10;95958.00;;;;8272022;28;20694;-72
2023/06/30 01:41:18;;;;;;;6.38;5.35;;;;;19.10;95957.00;;;;8272249;28;20277;-72
2023/06/30 01:45:29;;;;;;;8.70;5.25;;;;;19.20;95955.00;;;;8271571;28;20292;-72
2023/06/30 01:49:35;;;;;;;7.30;5.50;;;;;19.20;95944.00;;;;8261426;28;20879;-77
2023/06/30 01:53:39;;;;;;;7.85;5.60;;;;;19.00;95945.00;;;;8276214;28;20202;-67
2023/06/30 01:57:42;;;;;;;12.00;5.78;;;;;18.70;95950.00;;;;8276560;28;20198;-67
2023/06/30 02:01:48;;;;;;;9.13;5.63;;;;;18.60;95942.00;;;;8254823;28;20227;-68
2023/06/30 02:05:51;;;;;;;11.18;6.20;;;;;18.60;95945.00;;;;8224030;28;20294;-69
2023/06/30 02:09:55;;;;;;;8.90;6.57;;;;;18.60;95944.00;;;;8218443;28;20315;-68
2023/06/30 02:14:00;;;;;;;9.68;6.70;;;;;18.60;95937.00;;;;8226160;28;20200;-70
2023/06/30 02:18:05;;;;;;;7.70;6.25;;;;;18.60;95933.00;;;;8223523;28;20207;-69
2023/06/30 02:22:08;;;;;;;10.85;6.70;;;;;18.70;95925.00;;;;8217206;28;20199;-73
2023/06/30 02:26:11;;;;;;;9.27;6.85;;;;;18.70;95916.00;;;;8222174;28;20196;-73
2023/06/30 02:30:15;;;;;;;10.02;7.15;;;;;18.80;95918.00;;;;8222999;28;20227;-76
2023/06/30 02:34:19;;;;;;;9.15;7.03;;;;;18.80;95908.00;;;;8222721;28;20426;-77
2023/06/30 02:38:23;;;;;;;11.48;6.72;;;;;18.80;95913.00;;;;8223192;28;20601;-78
2023/06/30 02:42:26;;;;;;;12.10;6.90;;;;;18.70;95913.00;;;;8217025;28;20299;-72
2023/06/30 02:46:32;;;;;;;12.27;6.35;;;;;18.70;95916.00;;;;8227740;28;20219;-75
2023/06/30 02:50:38;;;;;;;9.95;7.18;;;;;18.70;95913.00;;;;8226087;28;20208;-72
2023/06/30 02:54:44;;;;;;;9.45;7.50;;;;;18.70;95913.00;;;;8222221;28;20310;-77
2023/06/30 02:58:47;;;;;;;9.38;7.07;;;;;18.70;95909.00;;;;8220942;28;20227;-74
2023/06/30 03:02:52;;;;;;;8.45;6.90;;;;;18.70;95913.00;;;;8273950;23;20246;-96
2023/06/30 03:07:19;;;;;;;12.23;6.75;;;;;18.70;95913.00;;;;8285095;28;20237;-95
2023/06/30 03:11:26;;;;;;;9.05;7.20;;;;;18.80;95918.00;;;;8285370;28;20203;-96
2023/06/30 03:15:40;;;;;;;7.85;7.00;;;;;18.80;95916.00;;;;8286289;28;20195;-95
2023/06/30 03:19:45;;;;;;;11.48;7.03;;;;;18.80;95928.00;;;;8287256;28;20210;-95
2023/06/30 03:23:53;;;;;;;9.95;7.32;;;;;18.80;95930.00;;;;8287358;28;20268;-94
2023/06/30 03:27:57;;;;;;;9.45;7.00;;;;;18.70;95924.00;;;;8286697;28;20214;-95
2023/06/30 03:32:06;;;;;;;12.68;7.82;;;;;18.80;95925.00;;;;8286850;28;20195;-95
2023/06/30 03:36:12;;;;;;;11.52;7.65;;;;;18.80;95930.00;;;;8284917;28;20207;-94
2023/06/30 03:40:19;;;;;;;10.63;7.63;;;;;18.80;95930.00;;;;8286162;28;20211;-95
2023/06/30 03:44:26;;;;;;;10.20;8.25;;;;;18.80;95929.00;;;;8290217;28;20214;-96
2023/06/30 03:48:34;;;;;;;12.95;8.13;;;;;18.80;95927.00;;;;8288886;28;20203;-95
2023/06/30 03:52:40;;;;;;;10.80;8.18;;;;;18.80;95929.00;;;;8287165;28;20202;-95
2023/06/30 03:57:02;;;;;;;12.15;8.35;;;;;18.80;95921.00;;;;8287651;28;20195;-95
2023/06/30 04:01:08;;;;;;;12.35;8.90;;;;;18.80;95922.00;;;;8290141;28;20226;-96
2023/06/30 04:05:18;;;;;;;11.55;8.40;;;;;18.80;95927.00;;;;8288148;28;20213;-96
2023/06/30 04:09:25;;;;;;;11.40;8.45;;;;;18.90;95927.00;;;;8287201;28;20230;-95
2023/06/30 04:13:37;;;;;;;10.45;8.27;;;;;18.90;95918.00;;;;8289813;28;20207;-96
2023/06/30 04:17:41;;;;;;;12.45;9.40;;;;;18.90;95928.00;;;;8289998;28;20221;-95
2023/06/30 04:21:49;;;;;;;11.40;8.45;;;;;18.90;95925.00;;;;8288131;28;20266;-95
2023/06/30 04:30:47;;;;;;;8.80;8.00;;;;;18.80;95929.00;;;;8286933;28;20222;-96
2023/06/30 04:35:13;;;;;;;10.63;8.70;;;;;18.90;95935.00;;;;8287848;28;20190;-96
2023/06/30 04:39:23;;;;;;;12.52;9.35;;;;;18.90;95936.00;;;;8290070;28;20199;-96
2023/06/30 04:43:34;;;;;;;14.82;9.23;;;;;18.90;95929.00;;;;8286341;28;20207;-96
2023/06/30 04:47:53;;;;;;;11.68;9.55;;;;;19.00;95930.00;;;;8285832;28;20214;-96
2023/06/30 04:52:01;;;;;;;13.57;9.15;;;;;19.00;95912.00;;;;8289031;28;20198;-96
2023/06/30 04:56:12;;;;;;;15.30;10.18;;;;;19.10;95907.00;;;;8290611;28;20731;-96
2023/06/30 05:00:21;;;;;;;16.92;10.30;;;;;19.20;95914.00;;;;8287784;28;20192;-96
2023/06/30 05:04:29;;;;;;;12.52;9.77;;;;;19.20;95907.00;;;;8285133;28;20223;-96
2023/06/30 05:08:35;;;;;;;13.10;10.43;;;;;19.30;95906.00;;;;8285302;28;20222;-96
2023/06/30 05:12:48;;;;;;;15.43;9.80;;;;;19.40;95905.00;;;;8288643;28;20222;-96
2023/06/30 05:16:58;;;;;;;13.95;10.65;;;;;19.50;95902.00;;;;8286907;28;20232;-96
2023/06/30 05:21:22;;;;;;;11.13;9.90;;;;;19.50;95907.00;;;;8287595;28;20209;-96
2023/06/30 05:25:33;;;;;;;14.43;10.65;;;;;19.50;95903.00;;;;8287271;28;20199;-96
2023/06/30 05:29:51;;;;;;;17.00;10.88;;;;;19.60;95915.00;;;;8290391;28;20230;-96
2023/06/30 05:34:01;;;;;;;14.45;10.73;;;;;19.70;95908.00;;;;8290116;28;20234;-96
2023/06/30 05:42:36;;;;;;;11.00;9.45;;;;;19.90;95901.00;;;;8293691;28;20191;-96
2023/06/30 05:46:44;;;;;;;14.02;10.05;;;;;19.90;95901.00;;;;8297125;28;20206;-96
2023/06/30 05:56:05;;;;;;;15.57;9.90;;;;;20.20;95908.00;;;;8233334;23;20640;-72
2023/06/30 06:00:10;;;;;;;12.35;9.68;;;;;20.20;95901.00;;;;8281548;28;21299;-73
2023/06/30 06:04:14;;;;;;;11.52;9.98;;;;;20.30;95913.00;;;;8291238;28;20221;-72
2023/06/30 06:08:17;;;;;;;12.32;10.02;;;;;20.60;95909.00;;;;8317783;28;20234;-71
2023/06/30 06:12:26;;;;;;;12.35;9.45;;;;;20.80;95910.00;;;;8293297;28;20248;-72
2023/06/30 06:16:31;;;;;;;21.85;9.98;;;;;21.20;95921.00;;;;8311067;28;20220;-72
2023/06/30 06:20:37;;;;;;;15.52;8.23;;;;;21.60;95916.00;;;;8319569;28;20678;-72
2023/06/30 06:24:44;;;;;;;9.27;7.75;;;;;21.80;95908.00;;;;8313513;28;20202;-73
2023/06/30 06:28:48;;;;;;;14.50;8.00;;;;;22.00;95915.00;;;;8318794;28;20232;-72
2023/06/30 06:32:52;;;;;;;9.15;7.30;;;;;22.20;95907.00;;;;8319931;28;20280;-73
2023/06/30 06:37:00;;;;;;;10.75;6.63;;;;;22.50;95916.00;;;;8298381;28;20193;-73
2023/06/30 06:41:03;;;;;;;12.05;6.50;;;;;22.80;95916.00;;;;8318309;28;20209;-73
2023/06/30 06:45:08;;;;;;;9.07;7.07;;;;;22.90;95919.00;;;;8315252;28;20194;-70
2023/06/30 06:49:13;;;;;;;7.60;6.15;;;;;22.90;95916.00;;;;8315557;28;20233;-71
2023/06/30 06:53:20;;;;;;;9.20;6.40;;;;;23.00;95915.00;;;;8314824;28;20221;-72
2023/06/30 06:57:32;;;;;;;8.25;6.82;;;;;23.30;95906.00;;;;8305010;28;20208;-73
2023/06/30 07:01:43;;;;;;;7.68;6.18;;;;;23.60;95907.00;;;;8306910;28;20555;-72
2023/06/30 07:05:50;;;;;;;6.97;6.18;;;;;23.90;95912.00;;;;8308040;28;20226;-72
2023/06/30 07:09:53;;;;;;;9.73;5.97;;;;;24.40;95926.00;;;;8307172;28;20345;-72
2023/06/30 07:14:10;;;;;;;8.05;6.25;;;;;24.50;95919.00;;;;8302810;28;20210;-71
2023/06/30 07:18:17;;;;;;;7.57;6.20;;;;;24.50;95914.00;;;;8306421;28;20198;-71
2023/06/30 07:22:25;;;;;;;9.93;6.60;;;;;24.50;95923.00;;;;8307001;28;20194;-71
2023/06/30 07:26:31;;;;;;;7.63;5.90;;;;;24.40;95913.00;;;;8302674;28;20212;-70
2023/06/30 07:30:36;;;;;;;8.52;6.15;;;;;24.30;95911.00;;;;8303278;28;20233;-72
2023/06/30 07:34:45;;;;;;;7.68;6.30;;;;;24.20;95920.00;;;;8314647;28;20268;-71
2023/06/30 07:38:48;;;;;;;8.57;6.55;;;;;24.20;95922.00;;;;8314407;28;20225;-72
2023/06/30 07:42:53;;;;;;;10.40;7.38;;;;;23.90;95924.00;;;;8316153;28;20233;-74
2023/06/30 07:46:58;;;;;;;10.48;8.75;;;;;23.80;95911.00;;;;8311011;28;20288;-67
2023/06/30 07:51:04;;;;;;;10.55;9.00;;;;;23.60;95907.00;;;;8308595;28;20228;-66
2023/06/30 07:55:13;;;;;;;9.55;8.45;;;;;23.40;95904.00;;;;8307748;28;20682;-67
2023/06/30 07:59:19;;;;;;;8.82;7.57;;;;;23.60;95911.00;;;;8305429;28;20193;-68
2023/06/30 08:03:22;;;;;;;8.90;8.00;;;;;23.80;95911.00;;;;8306043;28;20213;-69
2023/06/30 08:07:27;;;;;;;8.98;8.07;;;;;23.80;95917.00;;;;8309603;28;20208;-69
2023/06/30 08:11:51;;;;;;;9.00;7.97;;;;;23.60;95916.00;;;;8311963;28;20229;-69
2023/06/30 08:15:56;;;;;;;13.45;8.88;;;;;23.60;95916.00;;;;8311503;28;20634;-70
2023/06/30 08:20:04;;;;;;;13.38;8.65;;;;;23.90;95917.00;;;;8310503;28;20609;-71
2023/06/30 08:24:11;;;;;;;10.35;8.63;;;;;24.30;95922.00;;;;8310811;28;20244;-70
2023/06/30 08:28:14;;;;;;;13.73;8.68;;;;;24.90;95911.00;;;;8309976;28;20620;-73
2023/06/30 08:32:19;;;;;;;9.27;8.30;;;;;25.80;95925.00;;;;8311765;28;20260;-72
2023/06/30 08:36:23;;;;;;;9.57;7.20;;;;;26.40;95923.00;;;;8307347;28;20190;-72
2023/06/30 08:40:31;;;;;;;8.95;7.25;;;;;26.90;95929.00;;;;8309914;28;20264;-72
2023/06/30 08:44:36;;;;;;;8.50;7.60;;;;;26.90;95930.00;;;;8303352;28;20224;-73
2023/06/30 08:48:41;;;;;;;9.45;7.63;;;;;26.90;95931.00;;;;8305716;28;20324;-72
2023/06/30 08:52:45;;;;;;;8.85;7.63;;;;;27.10;95933.00;;;;8307980;28;20233;-72
2023/06/30 08:56:50;;;;;;;8.52;7.60;;;;;27.70;95929.00;;;;8309598;28;20989;-71
2023/06/30 09:00:57;;;;;;;23.13;10.63;;;;;27.80;95929.00;;;;8312014;28;20285;-75
2023/06/30 09:05:01;;;;;;;23.42;11.38;;;;;27.60;95931.00;;;;8313340;28;20241;-73
2023/06/30 09:09:11;;;;;;;21.75;11.80;;;;;27.20;95931.00;;;;8316544;28;20832;-69
2023/06/30 09:13:20;;;;;;;20.73;12.50;;;;;27.00;95920.00;;;;8317056;28;20792;-69
2023/06/30 09:17:25;;;;;;;19.73;13.63;;;;;27.20;95921.00;;;;8314446;28;20635;-72
2023/06/30 09:21:28;;;;;;;31.67;15.95;;;;;27.40;95928.00;;;;8313306;28;20198;-70
2023/06/30 09:25:41;;;;;;;22.45;13.68;;;;;27.70;95920.00;;;;8319992;28;20300;-71
2023/06/30 09:29:54;;;;;;;27.25;15.27;;;;;28.60;95916.00;;;;8314749;28;20701;-69
2023/06/30 09:34:08;;;;;;;30.65;17.42;;;;;28.70;95916.00;;;;8311430;28;20216;-70
2023/06/30 09:38:12;;;;;;;26.75;16.10;;;;;28.90;95912.00;;;;8315532;28;20760;-70
2023/06/30 09:42:16;;;;;;;27.17;16.33;;;;;29.20;95917.00;;;;8317791;28;20201;-70
2023/06/30 09:46:23;;;;;;;30.60;18.10;;;;;29.10;95916.00;;;;8316955;28;20312;-68
2023/06/30 09:50:27;;;;;;;29.85;18.02;;;;;28.90;95907.00;;;;8317325;28;20698;-70
2023/06/30 09:54:33;;;;;;;30.63;17.20;;;;;29.70;95906.00;;;;8322440;28;20194;-69
2023/06/30 09:58:47;;;;;;;31.83;18.13;;;;;29.40;95908.00;;;;8313181;28;20638;-70
2023/06/30 10:03:05;;;;;;;30.05;17.08;;;;;29.20;95901.00;;;;8315916;28;20221;-69
2023/06/30 10:07:10;;;;;;;27.30;16.90;;;;;29.40;95899.00;;;;8318453;28;20555;-69
2023/06/30 10:11:13;;;;;;;27.20;14.05;;;;;29.30;95900.00;;;;8316365;28;20700;-68
2023/06/30 10:15:18;;;;;;;22.38;12.60;;;;;29.80;95903.00;;;;8312893;28;20198;-70
2023/06/30 10:19:27;;;;;;;12.35;7.70;;;;;29.90;95896.00;;;;8300542;28;20770;-69
2023/06/30 10:23:32;;;;;;;17.08;9.52;;;;;30.20;95905.00;;;;8313977;28;20221;-70
2023/06/30 10:27:36;;;;;;;19.42;9.50;;;;;30.70;95889.00;;;;8312435;28;20212;-69
2023/06/30 10:31:49;;;;;;;11.70;8.30;;;;;30.30;95892.00;;;;8316947;28;20229;-69
2023/06/30 10:35:55;;;;;;;13.00;8.88;;;;;29.80;95890.00;;;;8314672;28;21017;-70
2023/06/30 10:39:58;;;;;;;14.95;8.90;;;;;29.60;95891.00;;;;8305450;28;20999;-67
2023/06/30 10:44:13;;;;;;;13.65;8.68;;;;;30.00;95888.00;;;;8314516;28;20237;-67
2023/06/30 10:48:20;;;;;;;14.45;9.05;;;;;30.80;95887.00;;;;8318469;28;20196;-68
2023/06/30 10:52:29;;;;;;;11.93;8.20;;;;;31.90;95891.00;;;;8311001;28;20316;-67
2023/06/30 10:56:34;;;;;;;10.65;7.78;;;;;32.10;95872.00;;;;8311652;28;20227;-68
2023/06/30 11:01:03;;;;;;;14.00;8.57;;;;;32.30;95878.00;;;;8321677;28;20198;-68
2023/06/30 11:05:21;;;;;;;14.40;9.43;;;;;31.80;95877.00;;;;8310210;28;20205;-68
2023/06/30 11:09:26;;;;;;;14.93;9.45;;;;;31.00;95869.00;;;;8308816;28;20681;-70
2023/06/30 11:13:37;;;;;;;13.90;9.60;;;;;30.20;95871.00;;;;8315246;28;20635;-67
2023/06/30 11:18:03;;;;;;;17.67;9.98;;;;;29.60;95870.00;;;;8308525;28;20285;-69
2023/06/30 11:22:22;;;;;;;15.68;10.23;;;;;28.90;95872.00;;;;8307698;28;20914;-71
2023/06/30 11:26:27;;;;;;;16.33;11.02;;;;;28.90;95861.00;;;;8313268;28;20710;-65
2023/06/30 11:30:38;;;;;;;20.10;11.23;;;;;28.80;95858.00;;;;8312409;28;20221;-67
2023/06/30 11:34:46;;;;;;;14.68;10.13;;;;;29.00;95848.00;;;;8307662;28;20205;-70
2023/06/30 11:38:51;;;;;;;18.33;11.65;;;;;29.50;95842.00;;;;8297681;28;20301;-65
2023/06/30 11:42:55;;;;;;;13.80;9.68;;;;;29.80;95825.00;;;;8308671;28;20205;-65
2023/06/30 11:47:03;;;;;;;18.13;10.63;;;;;30.00;95818.00;;;;8315530;28;20193;-69
2023/06/30 11:51:12;;;;;;;13.50;8.85;;;;;30.10;95831.00;;;;8312095;28;20260;-65
2023/06/30 11:55:19;;;;;;;15.25;9.13;;;;;30.20;95855.00;;;;8313053;28;20232;-71
2023/06/30 11:59:26;;;;;;;14.27;9.90;;;;;29.40;95892.00;;;;8307290;28;20197;-65
2023/06/30 12:03:30;;;;;;;17.42;10.35;;;;;28.50;95891.00;;;;8302339;28;20242;-82
2023/06/30 12:07:33;;;;;;;14.05;9.82;;;;;27.80;95887.00;;;;8310372;28;20267;-71
2023/06/30 12:11:38;;;;;;;19.63;12.55;;;;;27.30;95894.00;;;;8311757;28;20810;-70
2023/06/30 12:15:43;;;;;;;19.05;12.18;;;;;26.80;95882.00;;;;8313031;28;20194;-70
2023/06/30 12:19:46;;;;;;;26.42;15.30;;;;;26.50;95875.00;;;;8312509;28;20205;-68
2023/06/30 12:23:50;;;;;;;29.58;15.93;;;;;26.30;95883.00;;;;8311587;28;20193;-73
2023/06/30 12:27:54;;;;;;;27.15;16.10;;;;;26.10;95886.00;;;;8314690;28;20269;-72
2023/06/30 12:31:59;;;;;;;28.80;15.77;;;;;26.10;95885.00;;;;8295034;28;20225;-66
2023/06/30 12:36:05;;;;;;;28.10;15.77;;;;;25.50;95881.00;;;;8310758;28;20228;-71
2023/06/30 12:40:09;;;;;;;33.05;16.95;;;;;25.20;95882.00;;;;8304212;28;20821;-65
2023/06/30 12:44:14;;;;;;;26.55;15.10;;;;;24.80;95885.00;;;;8303254;28;20196;-67
2023/06/30 12:48:19;;;;;;;27.65;15.00;;;;;23.80;95882.00;;;;8312809;28;20264;-71
2023/06/30 12:52:22;;;;;;;29.63;16.95;;;;;23.10;95889.00;;;;8320566;28;20225;-70
2023/06/30 12:56:25;;;;;;;31.88;17.25;;;;;22.50;95883.00;;;;8322329;28;20308;-67
2023/06/30 13:00:29;;;;;;;31.15;15.98;;;;;22.10;95887.00;;;;8322775;28;20288;-71
2023/06/30 13:04:38;;;;;;;26.35;14.75;;;;;21.60;95886.00;;;;8320384;28;20221;-70
2023/06/30 13:08:41;;;;;;;30.00;15.23;;;;;21.00;95890.00;;;;8313179;28;20317;-64
2023/06/30 13:12:45;;;;;;;28.00;16.27;;;;;20.50;95882.00;;;;8314308;28;20237;-64
2023/06/30 13:16:50;;;;;;;29.15;15.30;;;;;20.20;95879.00;;;;8316570;28;20201;-64
2023/06/30 13:20:55;;;;;;;36.20;16.65;;;;;20.00;95891.00;;;;8323804;28;20212;-61
2023/06/30 13:24:59;;;;;;;31.05;14.75;;;;;19.90;95885.00;;;;8301914;28;20649;-63
2023/06/30 13:29:03;;;;;;;31.52;15.18;;;;;19.70;95880.00;;;;8318552;28;20204;-62
2023/06/30 13:33:06;;;;;;;33.20;14.90;;;;;19.60;95869.00;;;;8319597;28;20245;-62
2023/06/30 13:37:14;;;;;;;35.22;15.65;;;;;19.40;95851.00;;;;8323534;28;20216;-63
2023/06/30 13:41:20;;;;;;;34.13;16.65;;;;;19.20;95856.00;;;;8322539;28;20233;-64
2023/06/30 13:45:26;;;;;;;38.08;16.50;;;;;19.30;95851.00;;;;8315561;28;20294;-62
2023/06/30 13:49:29;;;;;;;39.20;17.08;;;;;19.50;95857.00;;;;8314483;28;20204;-65
2023/06/30 13:53:38;;;;;;;35.08;16.95;;;;;19.60;95856.00;;;;8320271;28;20253;-65
2023/06/30 13:57:41;;;;;;;39.78;17.92;;;;;19.60;95859.00;;;;8313188;28;20202;-65
2023/06/30 14:01:46;;;;;;;36.78;16.45;;;;;19.70;95855.00;;;;8319972;28;20217;-65
2023/06/30 14:05:51;;;;;;;34.67;17.23;;;;;19.70;95852.00;;;;8323164;28;20200;-66
2023/06/30 14:09:58;;;;;;;33.10;18.08;;;;;19.80;95837.00;;;;8316893;28;20198;-68
2023/06/30 14:14:05;;;;;;;36.28;18.05;;;;;20.10;95830.00;;;;8320760;28;20228;-65
2023/06/30 14:18:10;;;;;;;37.65;19.40;;;;;20.20;95827.00;;;;8315140;28;20282;-66
2023/06/30 14:22:18;;;;;;;45.85;17.77;;;;;20.30;95823.00;;;;8317768;28;20197;-66
2023/06/30 14:26:24;;;;;;;36.90;19.35;;;;;20.70;95818.00;;;;8319117;28;20197;-67
2023/06/30 14:30:31;;;;;;;37.88;18.67;;;;;21.60;95821.00;;;;8319225;28;20202;-67
2023/06/30 14:34:35;;;;;;;42.10;20.95;;;;;22.00;95803.00;;;;8322791;28;20221;-68
2023/06/30 14:38:38;;;;;;;39.53;20.60;;;;;22.50;95817.00;;;;8316446;28;20804;-67
2023/06/30 14:42:44;;;;;;;41.75;21.00;;;;;23.10;95804.00;;;;8319628;28;20281;-68
2023/06/30 14:46:52;;;;;;;38.35;19.95;;;;;23.60;95801.00;;;;8313545;28;20190;-68
2023/06/30 14:51:00;;;;;;;36.25;20.35;;;;;23.80;95795.00;;;;8321552;28;20206;-69
2023/06/30 14:55:05;;;;;;;37.88;20.67;;;;;23.90;95788.00;;;;8319803;28;20662;-71
2023/06/30 14:59:11;;;;;;;39.63;20.95;;;;;24.00;95793.00;;;;8317951;28;20208;-72
2023/06/30 15:03:18;;;;;;;40.42;21.70;;;;;23.70;95792.00;;;;8311757;28;20294;-71
2023/06/30 15:07:22;;;;;;;35.40;19.75;;;;;23.70;95792.00;;;;8318063;28;20232;-70
2023/06/30 15:11:25;;;;;;;40.25;20.50;;;;;23.80;95788.00;;;;8316999;28;20221;-70
2023/06/30 15:15:32;;;;;;;38.80;19.20;;;;;24.10;95786.00;;;;8311977;28;20203;-70
2023/06/30 15:19:40;;;;;;;34.33;19.25;;;;;24.40;95792.00;;;;8315706;28;20205;-68
2023/06/30 15:23:51;;;;;;;32.95;19.60;;;;;24.80;95785.00;;;;8310048;28;20189;-69
2023/06/30 15:27:54;;;;;;;38.03;20.73;;;;;24.90;95791.00;;;;8309694;28;20309;-69
2023/06/30 15:32:02;;;;;;;34.28;19.88;;;;;24.90;95791.00;;;;8314312;28;20225;-68
2023/06/30 15:36:08;;;;;;;32.15;18.48;;;;;25.00;95783.00;;;;8325658;28;20196;-69
2023/06/30 15:40:12;;;;;;;29.92;18.63;;;;;25.20;95793.00;;;;8319993;28;20249;-70
2023/06/30 15:44:18;;;;;;;33.85;18.67;;;;;25.60;95789.00;;;;8318492;28;20212;-71
2023/06/30 15:48:25;;;;;;;35.33;19.95;;;;;25.80;95789.00;;;;8318868;28;20284;-69
2023/06/30 15:52:33;;;;;;;33.33;18.98;;;;;25.80;95789.00;;;;8302033;28;20601;-69
2023/06/30 15:56:39;;;;;;;34.47;20.27;;;;;25.70;95780.00;;;;8320127;28;20245;-69
2023/06/30 16:00:42;;;;;;;37.65;20.33;;;;;25.70;95775.00;;;;8315997;28;20233;-69
2023/06/30 16:04:46;;;;;;;35.50;20.88;;;;;25.60;95775.00;;;;8319387;28;20255;-70
2023/06/30 16:08:52;;;;;;;39.30;22.25;;;;;25.50;95779.00;;;;8319507;28;20885;-69
2023/06/30 16:13:02;;;;;;;40.35;22.42;;;;;25.40;95776.00;;;;8320005;28;20221;-69
2023/06/30 16:17:15;;;;;;;40.40;21.58;;;;;25.30;95774.00;;;;8318578;28;20204;-69
2023/06/30 16:21:21;;;;;;;41.65;22.38;;;;;25.10;95772.00;;;;8309787;28;20324;-68
2023/06/30 16:25:24;;;;;;;40.33;23.13;;;;;25.10;95765.00;;;;8311913;28;20280;-70
2023/06/30 16:29:40;;;;;;;40.90;22.80;;;;;25.00;95757.00;;;;8319733;28;20243;-71
2023/06/30 16:33:43;;;;;;;43.63;22.92;;;;;24.90;95763.00;;;;8312069;28;20232;-69
2023/06/30 16:37:52;;;;;;;41.90;23.00;;;;;25.10;95754.00;;;;8311600;28;20281;-71
2023/06/30 16:42:00;;;;;;;42.05;22.70;;;;;25.20;95760.00;;;;8309026;28;20193;-70
2023/06/30 16:46:03;;;;;;;42.60;22.48;;;;;25.20;95761.00;;;;8318621;28;20225;-69
2023/06/30 16:50:10;;;;;;;39.88;23.23;;;;;25.10;95752.00;;;;8315350;28;20189;-69
2023/06/30 16:54:15;;;;;;;44.17;24.65;;;;;24.90;95759.00;;;;8314236;28;20224;-69
2023/06/30 16:58:29;;;;;;;42.10;24.25;;;;;24.70;95763.00;;;;8319738;28;20211;-70
2023/06/30 17:02:33;;;;;;;37.00;20.58;;;;;24.20;95782.00;;;;8315839;28;20272;-70
2023/06/30 17:06:36;;;;;;;32.38;18.15;;;;;23.60;95780.00;;;;8316429;28;20201;-69
2023/06/30 17:10:45;;;;;;;31.30;17.15;;;;;23.20;95771.00;;;;8318117;28;20609;-68
2023/06/30 17:14:51;;;;;;;30.40;17.40;;;;;22.80;95767.00;;;;8314101;28;20225;-68
2023/06/30 17:18:55;;;;;;;28.45;16.77;;;;;22.60;95771.00;;;;8317153;28;20779;-67
2023/06/30 17:23:04;;;;;;;28.40;16.40;;;;;22.30;95776.00;;;;8312449;28;20209;-68
2023/06/30 17:27:11;;;;;;;27.73;16.67;;;;;22.20;95780.00;;;;8313371;28;20558;-66
2023/06/30 17:31:15;;;;;;;29.48;16.48;;;;;22.10;95793.00;;;;8312864;28;20540;-67
2023/06/30 17:35:20;;;;;;;30.92;17.00;;;;;22.00;95794.00;;;;8319708;28;20225;-68
2023/06/30 17:39:24;;;;;;;30.85;17.60;;;;;21.80;95797.00;;;;8318777;28;20949;-68
2023/06/30 17:43:29;;;;;;;32.38;17.85;;;;;21.70;95803.00;;;;8302077;28;20202;-67
2023/06/30 17:47:32;;;;;;;33.78;18.17;;;;;21.60;95803.00;;;;8319218;28;20288;-67
2023/06/30 17:51:36;;;;;;;34.35;19.10;;;;;21.60;95813.00;;;;8319257;28;20204;-68
2023/06/30 17:55:39;;;;;;;30.52;18.20;;;;;21.50;95804.00;;;;8320487;28;20225;-69
2023/06/30 17:59:43;;;;;;;34.28;17.48;;;;;21.50;95795.00;;;;8316289;28;20312;-67
2023/06/30 18:03:46;;;;;;;34.38;18.70;;;;;21.50;95810.00;;;;8317569;28;20235;-69
2023/06/30 18:07:52;;;;;;;32.30;17.10;;;;;21.50;95809.00;;;;8318059;28;20201;-66
2023/06/30 18:11:57;;;;;;;33.63;17.60;;;;;21.50;95808.00;;;;8310848;28;20296;-68
2023/06/30 18:16:05;;;;;;;34.05;18.85;;;;;21.60;95809.00;;;;8307575;28;20619;-71
2023/06/30 18:20:11;;;;;;;32.13;18.08;;;;;21.60;95810.00;;;;8317317;28;20209;-68
2023/06/30 18:24:15;;;;;;;35.00;19.02;;;;;21.50;95805.00;;;;8318346;28;20272;-65
2023/06/30 18:28:23;;;;;;;31.38;18.45;;;;;21.50;95805.00;;;;8316173;28;20285;-66
2023/06/30 18:32:31;;;;;;;36.25;20.13;;;;;21.20;95807.00;;;;8320259;28;20320;-66
2023/06/30 18:36:36;;;;;;;35.22;20.08;;;;;20.90;95815.00;;;;8318627;28;20208;-67
2023/06/30 18:40:40;;;;;;;31.35;18.65;;;;;20.70;95818.00;;;;8317707;28;20193;-67
2023/06/30 18:44:44;;;;;;;32.70;19.50;;;;;20.70;95821.00;;;;8319638;28;20198;-67
2023/06/30 18:48:49;;;;;;;37.90;20.80;;;;;20.60;95826.00;;;;8317340;28;20204;-68
2023/06/30 18:52:52;;;;;;;37.80;20.83;;;;;20.50;95817.00;;;;8323687;28;20668;-67
2023/06/30 18:56:59;;;;;;;40.78;22.58;;;;;20.50;95824.00;;;;8315764;28;20296;-68
2023/06/30 19:01:03;;;;;;;41.92;23.17;;;;;20.40;95829.00;;;;8300618;28;20247;-66
2023/06/30 19:05:10;;;;;;;40.97;23.77;;;;;20.30;95831.00;;;;8315202;28;20717;-68
2023/06/30 19:09:18;;;;;;;41.63;23.98;;;;;20.30;95838.00;;;;8311609;28;20605;-66
2023/06/30 19:13:23;;;;;;;38.33;22.35;;;;;20.30;95843.00;;;;8314168;28;20312;-68
2023/06/30 19:17:27;;;;;;;39.25;22.17;;;;;20.30;95847.00;;;;8316046;28;20202;-65
2023/06/30 19:21:35;;;;;;;35.47;21.73;;;;;20.30;95850.00;;;;8318987;28;21058;-68
2023/06/30 19:25:38;;;;;;;38.13;20.33;;;;;20.20;95847.00;;;;8316245;28;20198;-68
2023/06/30 19:29:41;;;;;;;35.83;20.85;;;;;20.20;95857.00;;;;8317249;28;20229;-66
2023/06/30 19:33:45;;;;;;;33.92;19.45;;;;;20.10;95851.00;;;;8319103;28;20304;-68
2023/06/30 19:37:52;;;;;;;32.83;21.17;;;;;20.20;95847.00;;;;8316636;28;20224;-67
2023/06/30 19:41:58;;;;;;;34.30;19.88;;;;;20.20;95849.00;;;;8317734;28;20213;-66
2023/06/30 19:46:01;;;;;;;32.42;19.42;;;;;20.20;95857.00;;;;8315353;28;20217;-67
2023/06/30 19:50:05;;;;;;;35.67;19.65;;;;;20.20;95846.00;;;;8318226;28;21542;-67
2023/06/30 19:54:13;;;;;;;30.67;19.00;;;;;20.10;95853.00;;;;8316639;28;20752;-67
2023/06/30 19:58:17;;;;;;;35.55;19.70;;;;;20.10;95860.00;;;;8314202;28;20208;-67
2023/06/30 20:02:20;;;;;;;32.60;19.92;;;;;20.10;95857.00;;;;8311637;28;20221;-66
2023/06/30 20:06:23;;;;;;;33.40;20.42;;;;;20.00;95855.00;;;;8316993;28;20233;-67
2023/06/30 20:10:31;;;;;;;31.70;19.70;;;;;20.00;95855.00;;;;8316616;28;20218;-71
2023/06/30 20:14:36;;;;;;;33.03;19.67;;;;;20.00;95841.00;;;;8318823;28;20316;-69
2023/06/30 20:18:41;;;;;;;32.90;19.55;;;;;19.90;95833.00;;;;8315958;28;20197;-66
2023/06/30 20:22:48;;;;;;;39.00;21.48;;;;;19.90;95841.00;;;;8317874;28;20276;-69
2023/06/30 20:26:53;;;;;;;36.08;21.05;;;;;19.90;95847.00;;;;8314559;28;20204;-67
2023/06/30 20:30:57;;;;;;;36.03;19.73;;;;;19.90;95853.00;;;;8318707;28;20288;-71